EDP MEIA MARATONA DE GUIMARÃES - 10K

Tabela de Prémios


Dorsal Lugar Nome Sexo Categoria Clube Tempo Oficial Tempo Chip Fotografia Certificado
4719 315 Rosalina Costa Geral F-V45 M. Costas Grupo 00:53:29.310 00:53:07.160 Ver Descarregar
4400 396 Conceição Oliveira Geral F-V45 Sociedade Recreio Cepanense 00:55:54.073 00:55:30.670 Ver Descarregar
4833 396 Agostinha Gonçalves Geral F-V45 Individual 00:55:54.073 00:55:43.100 Ver Descarregar
4601 413 Lurdes Sousa Geral F-V45 Individual 00:56:26.567 00:56:02.350 Ver Descarregar
4489 444 Cristina Rodrigues Geral F-V45 Individual 00:57:30.063 00:56:48.276 Ver Descarregar
4068 448 Isália Pereira Geral F-V45 Individual 00:57:38.567 00:56:28.544 Ver Descarregar
4146 454 Maria Mendes Geral F-V45 Individual 00:57:44.573 00:57:09.176 Ver Descarregar
4054 467 Marilia Barroso Geral F-V45 Individual 00:58:10.580 00:57:00.897 Ver Descarregar
4508 485 Lúcia Teixeira Geral F-V45 Individual 00:58:54.563 00:56:47.973 Ver Descarregar
4365 489 Natália Bento Geral F-V45 Travassós Running 00:59:05.570 00:58:42.167 Ver Descarregar
4104 501 Isabel Gomes Geral F-V45 Atleticzun 00:59:37.567 00:57:56.217 Ver Descarregar
4532 512 Cristina Mendes Geral F-V45 Chrismel- Produtos Apícolas Vila Real 00:59:50.317 00:58:37.634 Ver Descarregar
4169 516 Paula Regalado Geral F-V45 Individual 01:00:10.573 00:58:20.693 Ver Descarregar
4286 541 Olga Simoes Geral F-V45 Individual 01:01:07.573 00:59:17.766 Ver Descarregar
4762 547 Mariamanuela Pereira Geral F-V45 Individual 01:01:19.320 00:59:18.127 Ver Descarregar
4322 554 Cristina Moreira Geral F-V45 Individual 01:01:22.820 01:00:16.270 Ver Descarregar
4635 591 Matilde Carneiro Geral F-V45 Individual 01:03:18.073 01:02:26.616 Ver Descarregar
4448 654 Maria Maduro Geral F-V45 Individual 01:06:35.583 01:05:16.883 Ver Descarregar
4559 675 Carina Freitas Geral F-V45 Individual 01:08:15.843 01:06:07.493 Ver Descarregar
4682 683 Carla Ferreira Geral F-V45 Individual 01:08:51.337 01:06:39.674 Ver Descarregar
4044 684 Ana Sousa Geral F-V45 Individual 01:08:51.587 01:07:11.150 Ver Descarregar
4306 686 Carla Ferreira Geral F-V45 Hipocampos De Corrida 01:08:56.337 01:06:54.880 Ver Descarregar
4246 704 Emilia Araujo Geral F-V45 Individual 01:10:30.840 01:08:37.553 Ver Descarregar
4105 710 Rosa Fernandes Geral F-V45 Atleticzun 01:12:07.840 01:10:27.573 Ver Descarregar
4022 735 Rosaclara Carvalhais Geral F-V45 Individual 01:19:04.857 01:18:34.860 Ver Descarregar